createdAt,value
2022-10-22T00:00:14.004Z,8.93
2022-10-22T00:02:41.897Z,6.10
2022-10-22T00:05:09.055Z,8.18
2022-10-22T00:07:36.179Z,8.48
2022-10-22T00:10:05.896Z,9.70
2022-10-22T00:12:32.931Z,6.88
2022-10-22T00:14:59.918Z,7.75
2022-10-22T00:17:26.961Z,7.45
2022-10-22T00:19:53.833Z,9.68
2022-10-22T00:22:20.770Z,9.05
2022-10-22T00:24:47.649Z,10.60
2022-10-22T00:27:14.799Z,9.88
2022-10-22T00:29:41.768Z,10.98
2022-10-22T00:32:09.034Z,10.88
2022-10-22T00:34:35.972Z,6.82
2022-10-22T00:37:02.830Z,9.80
2022-10-22T00:39:30.150Z,8.15
2022-10-22T00:41:58.486Z,17.77
2022-10-22T00:45:02.751Z,10.48
2022-10-22T00:47:36.430Z,7.05
2022-10-22T00:50:06.518Z,8.98
2022-10-22T00:52:33.898Z,9.95
2022-10-22T00:55:01.581Z,8.05
2022-10-22T00:57:29.232Z,12.85
2022-10-22T00:59:57.571Z,12.70
2022-10-22T01:02:24.685Z,12.98
2022-10-22T01:04:51.697Z,8.80
2022-10-22T01:07:21.916Z,8.75
2022-10-22T01:10:01.185Z,9.87
2022-10-22T01:12:43.302Z,11.73
2022-10-22T01:15:34.037Z,12.27
2022-10-22T01:18:29.478Z,8.80
2022-10-22T01:21:12.912Z,11.70
2022-10-22T01:23:42.396Z,12.25
2022-10-22T01:26:42.807Z,10.32
2022-10-22T01:29:18.697Z,11.75
2022-10-22T01:31:53.477Z,10.45
2022-10-22T01:34:22.292Z,7.30
2022-10-22T01:36:51.986Z,8.07
2022-10-22T01:39:20.740Z,9.05
2022-10-22T01:41:47.563Z,9.52
2022-10-22T01:47:09.733Z,13.85
2022-10-22T01:49:39.730Z,8.82
2022-10-22T01:52:46.066Z,6.78
2022-10-22T01:55:30.291Z,8.77
2022-10-22T01:58:08.022Z,11.23
2022-10-22T02:00:39.963Z,10.70
2022-10-22T02:03:22.774Z,8.50
2022-10-22T02:06:03.982Z,9.32
2022-10-22T02:08:33.833Z,10.35
2022-10-22T02:11:01.454Z,7.60
2022-10-22T02:13:36.538Z,10.82
2022-10-22T02:16:06.798Z,7.03
2022-10-22T02:18:38.829Z,15.57
2022-10-22T02:23:40.283Z,9.85
2022-10-22T02:26:19.512Z,10.75
2022-10-22T02:28:58.602Z,11.98
2022-10-22T02:31:31.146Z,17.15
2022-10-22T02:34:04.942Z,17.42
2022-10-22T02:36:32.562Z,14.07
2022-10-22T02:39:00.338Z,13.23
2022-10-22T02:41:28.103Z,12.07
2022-10-22T02:43:56.205Z,12.05
2022-10-22T02:46:24.469Z,12.02
2022-10-22T02:48:51.580Z,12.35
2022-10-22T02:51:18.403Z,10.57
2022-10-22T02:53:45.977Z,8.23
2022-10-22T02:56:14.242Z,8.45
2022-10-22T02:58:41.210Z,11.93
2022-10-22T03:01:09.486Z,11.15
2022-10-22T03:03:39.297Z,7.75
2022-10-22T03:06:06.418Z,6.55
2022-10-22T03:08:34.994Z,8.65
2022-10-22T03:11:01.831Z,7.60
2022-10-22T03:13:29.095Z,14.98
2022-10-22T03:15:56.039Z,8.90
2022-10-22T03:18:23.087Z,12.35
2022-10-22T03:20:50.015Z,10.70
2022-10-22T03:23:19.968Z,8.98
2022-10-22T03:25:48.799Z,12.07
2022-10-22T03:28:17.924Z,8.73
2022-10-22T03:30:44.784Z,7.93
2022-10-22T03:33:11.721Z,7.28
2022-10-22T03:35:45.163Z,13.30
2022-10-22T03:38:12.711Z,21.20
2022-10-22T03:40:41.229Z,25.30
2022-10-22T03:43:08.341Z,28.55
2022-10-22T03:45:35.217Z,20.55
2022-10-22T03:48:02.621Z,16.13
2022-10-22T03:50:29.476Z,19.75
2022-10-22T03:52:58.243Z,10.90
2022-10-22T03:55:25.378Z,18.67
2022-10-22T03:57:52.533Z,13.23
2022-10-22T04:00:19.457Z,16.40
2022-10-22T04:02:46.423Z,12.20
2022-10-22T04:07:41.637Z,9.55
2022-10-22T04:10:09.074Z,11.07
2022-10-22T04:12:36.003Z,22.60
2022-10-22T04:15:02.915Z,17.55
2022-10-22T04:17:35.285Z,21.77
2022-10-22T04:20:04.360Z,26.42
2022-10-22T04:22:34.895Z,39.95
2022-10-22T04:25:02.565Z,38.85
2022-10-22T04:27:34.683Z,22.75
2022-10-22T04:30:02.611Z,20.05
2022-10-22T04:32:29.651Z,18.17
2022-10-22T04:34:56.555Z,22.75
2022-10-22T04:37:23.614Z,18.85
2022-10-22T04:39:50.735Z,27.48
2022-10-22T04:42:17.905Z,21.85
2022-10-22T04:44:44.954Z,32.20
2022-10-22T04:47:11.987Z,50.97
2022-10-22T04:49:38.834Z,46.25
2022-10-22T04:52:06.043Z,29.20
2022-10-22T04:54:33.256Z,26.48
2022-10-22T04:57:00.551Z,27.52
2022-10-22T04:59:27.650Z,32.50
2022-10-22T05:01:54.725Z,24.13
2022-10-22T05:04:21.725Z,20.88
2022-10-22T05:06:48.736Z,15.00
2022-10-22T05:09:18.229Z,21.80
2022-10-22T05:11:48.965Z,18.23
2022-10-22T05:14:19.074Z,10.13
2022-10-22T05:16:48.665Z,10.05
2022-10-22T05:19:25.605Z,8.98
2022-10-22T05:21:54.989Z,13.60
2022-10-22T05:24:22.400Z,14.20
2022-10-22T05:26:51.014Z,15.27
2022-10-22T05:29:18.882Z,13.95
2022-10-22T05:31:45.886Z,12.88
2022-10-22T05:34:13.726Z,13.55
2022-10-22T05:36:40.580Z,11.48
2022-10-22T05:39:08.168Z,9.23
2022-10-22T05:41:36.169Z,14.43
2022-10-22T05:44:03.714Z,11.48
2022-10-22T05:46:34.025Z,20.08
2022-10-22T05:49:02.745Z,9.35
2022-10-22T05:51:31.815Z,11.65
2022-10-22T05:54:01.367Z,15.63
2022-10-22T05:56:30.419Z,14.98
2022-10-22T05:58:57.493Z,13.02
2022-10-22T06:01:30.166Z,12.80
2022-10-22T06:04:00.573Z,13.30
2022-10-22T06:06:31.753Z,15.73
2022-10-22T06:09:02.933Z,17.15
2022-10-22T06:14:02.242Z,24.00
2022-10-22T06:16:30.138Z,24.50
2022-10-22T06:18:59.199Z,21.17
2022-10-22T06:21:26.347Z,17.08
2022-10-22T06:23:57.325Z,21.42
2022-10-22T06:26:24.631Z,21.85
2022-10-22T06:28:51.648Z,15.73
2022-10-22T06:31:18.764Z,18.08
2022-10-22T06:33:45.769Z,20.63
2022-10-22T06:36:15.787Z,24.70
2022-10-22T06:38:43.392Z,23.58
2022-10-22T06:41:13.603Z,17.85
2022-10-22T06:43:41.884Z,19.07
2022-10-22T06:46:13.709Z,21.35
2022-10-22T06:48:43.879Z,22.42
2022-10-22T06:51:15.240Z,24.70
2022-10-22T06:53:42.299Z,19.92
2022-10-22T06:56:14.485Z,21.77
2022-10-22T06:58:41.864Z,18.15
2022-10-22T07:01:11.880Z,18.80
2022-10-22T07:03:40.331Z,16.08
2022-10-22T07:06:11.052Z,26.17
2022-10-22T07:08:38.945Z,18.77
2022-10-22T07:11:12.367Z,36.10
2022-10-22T07:13:39.683Z,28.10
2022-10-22T07:16:10.606Z,22.63
2022-10-22T07:18:42.313Z,26.55
2022-10-22T07:21:10.886Z,31.27
2022-10-22T07:23:50.134Z,25.35
2022-10-22T07:26:27.081Z,22.13
2022-10-22T07:28:54.173Z,25.40
2022-10-22T07:31:21.482Z,32.22
2022-10-22T07:33:48.544Z,20.23
2022-10-22T07:36:19.937Z,19.05
2022-10-22T07:41:17.483Z,25.92
2022-10-22T07:43:44.882Z,24.55
2022-10-22T07:46:12.212Z,20.63
2022-10-22T07:48:49.572Z,17.00
2022-10-22T07:51:37.375Z,20.67
2022-10-22T07:54:09.673Z,19.63
2022-10-22T07:56:47.307Z,16.15
2022-10-22T07:59:20.768Z,12.68
2022-10-22T08:01:47.925Z,17.52
2022-10-22T08:04:16.594Z,14.98
2022-10-22T08:06:47.171Z,15.25
2022-10-22T08:09:15.677Z,22.83
2022-10-22T08:11:42.556Z,18.30
2022-10-22T08:14:09.633Z,20.33
2022-10-22T08:16:53.455Z,16.50
2022-10-22T08:19:21.406Z,15.45
2022-10-22T08:21:48.767Z,18.05
2022-10-22T08:24:15.915Z,20.45
2022-10-22T08:26:43.346Z,33.42
2022-10-22T08:29:10.432Z,27.27
2022-10-22T08:31:37.444Z,7.70
2022-10-22T08:34:05.937Z,10.18
2022-10-22T08:36:33.073Z,12.63
2022-10-22T08:39:00.292Z,22.23
2022-10-22T08:41:27.280Z,14.70
2022-10-22T08:44:25.839Z,13.77
2022-10-22T08:47:18.689Z,10.70
2022-10-22T08:49:48.956Z,10.43
2022-10-22T08:52:20.290Z,10.48
2022-10-22T08:57:49.969Z,11.73
2022-10-22T09:00:41.138Z,10.98
2022-10-22T09:03:20.112Z,13.77
2022-10-22T09:06:14.919Z,15.05
2022-10-22T09:08:47.689Z,15.10
2022-10-22T09:11:33.182Z,12.35
2022-10-22T09:14:01.318Z,14.10
2022-10-22T09:16:31.274Z,14.23
2022-10-22T09:19:13.423Z,20.50
2022-10-22T09:22:08.831Z,11.02
2022-10-22T09:24:45.690Z,16.88
2022-10-22T09:27:21.689Z,11.23
2022-10-22T09:29:49.008Z,19.42
2022-10-22T09:32:17.637Z,14.18
2022-10-22T09:34:46.798Z,16.65
2022-10-22T09:37:18.490Z,7.65
2022-10-22T09:39:48.654Z,11.07
2022-10-22T09:42:18.433Z,7.75
2022-10-22T09:44:53.254Z,6.68
2022-10-22T09:47:43.260Z,7.72
2022-10-22T09:50:37.133Z,14.15
2022-10-22T09:53:22.226Z,24.15
2022-10-22T09:58:27.397Z,15.18
2022-10-22T10:00:57.403Z,16.50
2022-10-22T10:03:28.919Z,7.95
2022-10-22T10:06:02.976Z,11.07
2022-10-22T10:08:33.835Z,12.45
2022-10-22T10:11:17.938Z,7.32
2022-10-22T10:14:13.172Z,14.48
2022-10-22T10:16:43.439Z,8.05
2022-10-22T10:19:23.491Z,5.65
2022-10-22T10:21:59.729Z,6.00
2022-10-22T10:25:00.598Z,6.63
2022-10-22T10:27:57.106Z,13.40
2022-10-22T10:30:25.287Z,10.07
2022-10-22T10:33:16.935Z,14.98
2022-10-22T10:38:21.820Z,26.83
2022-10-22T10:41:07.785Z,7.13
2022-10-22T10:43:56.535Z,20.98
2022-10-22T10:46:43.706Z,9.98
2022-10-22T10:49:19.981Z,8.05
2022-10-22T10:52:01.895Z,11.55
2022-10-22T10:54:31.426Z,11.25
2022-10-22T10:57:24.265Z,12.18
2022-10-22T11:00:10.309Z,10.65
2022-10-22T11:03:08.440Z,8.15
2022-10-22T11:06:06.651Z,13.35
2022-10-22T11:08:38.817Z,5.68
2022-10-22T11:11:08.920Z,4.35
2022-10-22T11:13:47.085Z,6.57
2022-10-22T11:16:23.490Z,7.82
2022-10-22T11:19:06.329Z,11.52
2022-10-22T11:22:05.486Z,5.93
2022-10-22T11:24:35.864Z,7.85
2022-10-22T11:27:27.680Z,7.82
2022-10-22T11:30:02.905Z,5.80
2022-10-22T11:32:31.968Z,7.47
2022-10-22T11:35:03.385Z,13.45
2022-10-22T11:37:39.528Z,10.90
2022-10-22T11:40:29.536Z,7.03
2022-10-22T11:43:48.252Z,4.38
2022-10-22T11:46:15.827Z,4.97
2022-10-22T11:48:44.066Z,19.08
2022-10-22T11:51:50.989Z,7.25
2022-10-22T11:54:43.061Z,7.43
2022-10-22T11:57:16.357Z,6.05
2022-10-22T11:59:47.128Z,6.68
2022-10-22T12:02:29.479Z,7.13
2022-10-22T12:05:17.115Z,5.90
2022-10-22T12:07:54.600Z,5.32
2022-10-22T12:10:25.967Z,9.68
2022-10-22T12:13:05.760Z,6.18
2022-10-22T12:15:32.857Z,6.43
2022-10-22T12:18:02.737Z,3.70
2022-10-22T12:20:30.513Z,5.40
2022-10-22T12:23:00.346Z,3.28
2022-10-22T12:25:35.750Z,4.78
2022-10-22T12:28:13.525Z,4.25
2022-10-22T12:30:41.668Z,10.65
2022-10-22T12:33:18.937Z,12.13
2022-10-22T12:35:47.967Z,6.68
2022-10-22T12:38:18.096Z,5.72
2022-10-22T12:40:48.439Z,4.05
2022-10-22T12:43:31.871Z,9.90
2022-10-22T12:45:59.498Z,6.07
2022-10-22T12:48:38.765Z,4.80
2022-10-22T12:54:27.874Z,5.07
2022-10-22T12:56:57.658Z,6.57
2022-10-22T12:59:49.502Z,4.35
2022-10-22T13:02:24.862Z,4.53
2022-10-22T13:05:19.699Z,5.57
2022-10-22T13:07:51.486Z,10.40
2022-10-22T13:10:28.196Z,6.50
2022-10-22T13:12:57.651Z,8.77
2022-10-22T13:15:30.599Z,10.23
2022-10-22T13:18:16.830Z,4.28
2022-10-22T13:20:52.936Z,9.13
2022-10-22T13:23:23.027Z,8.57
2022-10-22T13:26:01.284Z,9.95
2022-10-22T13:28:32.666Z,8.57
2022-10-22T13:31:21.427Z,8.95
2022-10-22T13:33:55.551Z,9.65
2022-10-22T13:36:23.711Z,6.65
2022-10-22T13:38:51.045Z,17.10
2022-10-22T13:41:27.897Z,123.50
2022-10-22T13:43:55.392Z,28.90
2022-10-22T13:46:24.274Z,10.63
2022-10-22T13:48:56.245Z,30.17
2022-10-22T13:51:28.427Z,11.57
2022-10-22T13:54:00.585Z,39.72
2022-10-22T13:56:27.814Z,61.72
2022-10-22T13:58:54.875Z,44.83
2022-10-22T14:01:28.949Z,35.83
2022-10-22T14:03:59.210Z,43.97
2022-10-22T14:06:31.546Z,32.33
2022-10-22T14:09:02.407Z,35.38
2022-10-22T14:11:31.427Z,17.05
2022-10-22T14:13:59.421Z,15.57
2022-10-22T14:16:29.182Z,26.17
2022-10-22T14:18:57.723Z,22.33
2022-10-22T14:21:30.094Z,9.52
2022-10-22T14:24:01.045Z,19.08
2022-10-22T14:26:33.453Z,21.00
2022-10-22T14:29:10.713Z,10.32
2022-10-22T14:34:10.457Z,14.77
2022-10-22T14:36:37.891Z,15.85
2022-10-22T14:39:05.326Z,28.55
2022-10-22T14:41:33.090Z,21.17
2022-10-22T14:44:01.015Z,21.17
2022-10-22T14:46:28.656Z,19.52
2022-10-22T14:48:58.277Z,20.35
2022-10-22T14:51:26.001Z,24.90
2022-10-22T14:53:55.869Z,24.05
2022-10-22T14:56:23.283Z,12.90
2022-10-22T14:58:51.233Z,20.20
2022-10-22T15:01:18.372Z,22.30
2022-10-22T15:03:45.845Z,24.88
2022-10-22T15:06:14.518Z,21.88
2022-10-22T15:08:41.869Z,21.05
2022-10-22T15:11:12.104Z,30.73
2022-10-22T15:13:42.220Z,32.83
2022-10-22T15:16:12.258Z,23.60
2022-10-22T15:18:39.172Z,38.72
2022-10-22T15:21:09.291Z,50.15
2022-10-22T15:23:36.996Z,45.70
2022-10-22T15:26:06.893Z,52.45
2022-10-22T15:28:34.526Z,68.28
2022-10-22T15:31:01.713Z,66.93
2022-10-22T15:33:29.384Z,119.57
2022-10-22T15:35:57.249Z,94.38
2022-10-22T15:41:05.273Z,100.43
2022-10-22T15:43:34.345Z,106.47
2022-10-22T15:46:13.658Z,86.05
2022-10-22T15:48:41.517Z,99.07
2022-10-22T15:51:13.910Z,94.68
2022-10-22T15:53:41.979Z,94.90
2022-10-22T15:56:11.898Z,101.13
2022-10-22T15:58:38.969Z,104.82
2022-10-22T16:01:08.433Z,89.68
2022-10-22T16:03:36.058Z,100.03
2022-10-22T16:06:03.720Z,135.05
2022-10-22T16:08:31.345Z,132.98
2022-10-22T16:10:59.071Z,148.70
2022-10-22T16:13:26.706Z,128.13
2022-10-22T16:15:54.075Z,101.65
2022-10-22T16:18:21.898Z,117.18
2022-10-22T16:20:49.312Z,104.63
2022-10-22T16:23:19.240Z,119.53
2022-10-22T16:25:46.822Z,121.50
2022-10-22T16:28:14.569Z,106.68
2022-10-22T16:30:41.858Z,107.15
2022-10-22T16:33:41.354Z,153.57
2022-10-22T16:36:13.423Z,104.20
2022-10-22T16:38:40.328Z,104.03
2022-10-22T16:41:46.972Z,104.40
2022-10-22T16:44:55.455Z,145.10
2022-10-22T16:47:31.163Z,138.57
2022-10-22T16:50:00.957Z,146.52
2022-10-22T16:52:28.191Z,98.95
2022-10-22T16:58:22.797Z,99.78
2022-10-22T17:03:19.818Z,108.32
2022-10-22T17:05:47.007Z,107.50
2022-10-22T17:08:17.843Z,96.65
2022-10-22T17:10:45.035Z,92.05
2022-10-22T17:13:13.172Z,91.93
2022-10-22T17:15:46.899Z,94.43
2022-10-22T17:18:15.394Z,88.13
2022-10-22T17:20:46.165Z,88.18
2022-10-22T17:23:13.276Z,78.80
2022-10-22T17:25:44.715Z,79.95
2022-10-22T17:30:40.747Z,96.70
2022-10-22T17:33:08.671Z,94.40
2022-10-22T17:35:40.507Z,91.43
2022-10-22T17:38:07.793Z,97.60
2022-10-22T17:41:25.868Z,88.95
2022-10-22T17:44:15.631Z,130.80
2022-10-22T17:46:44.232Z,131.95
2022-10-22T17:49:17.265Z,101.65
2022-10-22T17:51:44.557Z,76.32
2022-10-22T17:54:25.825Z,93.75
2022-10-22T17:56:53.218Z,81.30
2022-10-22T17:59:29.427Z,82.32
2022-10-22T18:01:59.463Z,73.38
2022-10-22T18:04:27.283Z,75.38
2022-10-22T18:06:54.159Z,78.10
2022-10-22T18:09:21.141Z,74.97
2022-10-22T18:11:50.204Z,64.38
2022-10-22T18:14:18.662Z,80.70
2022-10-22T18:16:46.483Z,64.88
2022-10-22T18:19:17.035Z,83.60
2022-10-22T18:21:44.187Z,81.80
2022-10-22T18:24:11.472Z,85.95
2022-10-22T18:26:38.805Z,86.40
2022-10-22T18:29:05.844Z,98.88
2022-10-22T18:31:33.060Z,73.97
2022-10-22T18:34:00.075Z,65.43
2022-10-22T18:36:27.929Z,72.50
2022-10-22T18:38:57.483Z,71.00
2022-10-22T18:41:26.145Z,74.50
2022-10-22T18:43:55.803Z,76.93
2022-10-22T18:46:24.104Z,65.13
2022-10-22T18:48:58.748Z,64.72
2022-10-22T18:51:30.244Z,44.40
2022-10-22T18:56:44.531Z,66.63
2022-10-22T18:59:29.908Z,60.83
2022-10-22T19:02:00.645Z,65.07
2022-10-22T19:04:37.214Z,69.68
2022-10-22T19:07:05.551Z,63.45
2022-10-22T19:09:32.898Z,61.00
2022-10-22T19:12:00.401Z,52.45
2022-10-22T19:14:27.602Z,72.72
2022-10-22T19:16:55.735Z,63.65
2022-10-22T19:19:22.683Z,69.28
2022-10-22T19:21:50.439Z,88.57
2022-10-22T19:24:19.436Z,80.53
2022-10-22T19:26:47.441Z,88.70
2022-10-22T19:29:16.766Z,82.55
2022-10-22T19:31:44.756Z,81.50
2022-10-22T19:34:11.859Z,68.80
2022-10-22T19:36:38.711Z,77.50
2022-10-22T19:39:06.308Z,63.38
2022-10-22T19:41:33.986Z,55.05
2022-10-22T19:44:01.441Z,54.97
2022-10-22T19:46:30.310Z,50.95
2022-10-22T19:48:57.444Z,56.58
2022-10-22T19:51:27.889Z,61.92
2022-10-22T19:54:00.383Z,66.40
2022-10-22T19:56:27.930Z,54.97
2022-10-22T19:58:54.885Z,75.00
2022-10-22T20:01:22.253Z,76.68
2022-10-22T20:03:49.435Z,60.05
2022-10-22T20:06:17.925Z,55.15
2022-10-22T20:08:46.118Z,45.95
2022-10-22T20:11:31.261Z,45.03
2022-10-22T20:13:58.553Z,41.88
2022-10-22T20:16:29.738Z,42.92
2022-10-22T20:19:01.376Z,44.40
2022-10-22T20:21:28.598Z,39.38
2022-10-22T20:23:57.502Z,58.20
2022-10-22T20:26:28.189Z,46.90
2022-10-22T20:28:56.816Z,41.65
2022-10-22T20:31:27.143Z,38.67
2022-10-22T20:33:56.425Z,38.47
2022-10-22T20:36:23.966Z,39.53
2022-10-22T20:38:51.691Z,47.00
2022-10-22T20:41:25.582Z,40.65
2022-10-22T20:43:52.475Z,47.80
2022-10-22T20:46:32.407Z,52.05
2022-10-22T20:49:11.658Z,60.17
2022-10-22T20:51:38.711Z,50.63
2022-10-22T20:54:10.324Z,51.28
2022-10-22T20:59:06.087Z,44.95
2022-10-22T21:01:39.620Z,49.03
2022-10-22T21:04:07.180Z,50.33
2022-10-22T21:06:37.983Z,49.70
2022-10-22T21:09:07.309Z,61.00
2022-10-22T21:11:35.284Z,52.67
2022-10-22T21:14:03.568Z,58.08
2022-10-22T21:16:30.667Z,58.53
2022-10-22T21:18:57.656Z,51.85
2022-10-22T21:21:24.648Z,51.67
2022-10-22T21:23:51.709Z,53.88
2022-10-22T21:26:19.977Z,49.63
2022-10-22T21:28:47.771Z,52.60
2022-10-22T21:31:21.972Z,57.10
2022-10-22T21:33:50.036Z,53.90
2022-10-22T21:36:21.602Z,51.13
2022-10-22T21:38:50.369Z,49.55
2022-10-22T21:41:19.151Z,54.58
2022-10-22T21:43:46.131Z,50.85
2022-10-22T21:46:18.993Z,47.47
2022-10-22T21:48:46.235Z,40.25
2022-10-22T21:51:16.404Z,35.30
2022-10-22T21:53:44.374Z,34.42
2022-10-22T21:56:32.968Z,41.08
2022-10-22T21:59:01.032Z,37.80
2022-10-22T22:01:28.075Z,37.17
2022-10-22T22:03:55.331Z,42.20
2022-10-22T22:06:24.251Z,39.38
2022-10-22T22:08:55.300Z,30.90
2022-10-22T22:11:25.330Z,32.15
2022-10-22T22:13:53.687Z,39.65
2022-10-22T22:16:28.435Z,37.95
2022-10-22T22:19:01.210Z,32.05
2022-10-22T22:21:28.805Z,30.85
2022-10-22T22:23:56.946Z,32.10
2022-10-22T22:26:28.715Z,32.85
2022-10-22T22:28:58.876Z,30.60
2022-10-22T22:31:28.957Z,28.95
2022-10-22T22:34:03.615Z,21.23
2022-10-22T22:36:36.524Z,25.20
2022-10-22T22:39:05.391Z,26.58
2022-10-22T22:41:32.363Z,21.90
2022-10-22T22:43:59.381Z,18.45
2022-10-22T22:46:26.194Z,22.42
2022-10-22T22:48:53.277Z,18.42
2022-10-22T22:51:20.180Z,20.38
2022-10-22T22:53:47.496Z,18.83
2022-10-22T22:56:20.511Z,19.67
2022-10-22T22:58:47.756Z,19.10
2022-10-22T23:01:17.664Z,20.48
2022-10-22T23:03:47.378Z,17.65
2022-10-22T23:06:15.467Z,19.65
2022-10-22T23:08:42.770Z,20.27
2022-10-22T23:11:13.306Z,26.13
2022-10-22T23:13:41.619Z,21.87
2022-10-22T23:16:20.054Z,23.65
2022-10-22T23:18:48.413Z,29.40
2022-10-22T23:21:36.833Z,27.73
2022-10-22T23:24:08.064Z,27.85
2022-10-22T23:26:41.058Z,25.25
2022-10-22T23:29:10.769Z,28.58
2022-10-22T23:31:37.644Z,29.88
2022-10-22T23:34:05.791Z,46.13
2022-10-22T23:36:35.062Z,39.22
2022-10-22T23:39:05.631Z,26.15
2022-10-22T23:41:32.684Z,29.37
2022-10-22T23:43:59.722Z,29.35
2022-10-22T23:46:26.858Z,28.58
2022-10-22T23:48:54.009Z,29.38
2022-10-22T23:51:21.563Z,31.20
2022-10-22T23:53:54.143Z,28.05
2022-10-22T23:56:21.063Z,33.00
2022-10-22T23:58:51.617Z,29.48
